sensor_id;sensor_type;location;lat;lon;timestamp;P1;durP1;ratioP1;P2;durP2;ratioP2
22234;SDS011;11286;45.596;5.284;2023-03-29T00:00:58;3.00;;;1.40;;
22234;SDS011;11286;45.596;5.284;2023-03-29T00:03:24;4.13;;;2.00;;
22234;SDS011;11286;45.596;5.284;2023-03-29T00:05:50;4.43;;;1.55;;
22234;SDS011;11286;45.596;5.284;2023-03-29T00:08:21;5.65;;;1.73;;
22234;SDS011;11286;45.596;5.284;2023-03-29T00:10:48;3.03;;;1.33;;
22234;SDS011;11286;45.596;5.284;2023-03-29T00:13:14;3.95;;;1.50;;
22234;SDS011;11286;45.596;5.284;2023-03-29T00:15:40;3.22;;;1.40;;
22234;SDS011;11286;45.596;5.284;2023-03-29T00:18:06;3.80;;;1.67;;
22234;SDS011;11286;45.596;5.284;2023-03-29T00:20:31;2.88;;;1.70;;
22234;SDS011;11286;45.596;5.284;2023-03-29T00:22:57;4.45;;;1.70;;
22234;SDS011;11286;45.596;5.284;2023-03-29T00:25:23;6.13;;;1.90;;
22234;SDS011;11286;45.596;5.284;2023-03-29T00:27:48;7.03;;;1.90;;
22234;SDS011;11286;45.596;5.284;2023-03-29T00:30:14;3.95;;;1.60;;
22234;SDS011;11286;45.596;5.284;2023-03-29T00:32:40;2.40;;;1.40;;
22234;SDS011;11286;45.596;5.284;2023-03-29T00:35:06;2.50;;;1.70;;
22234;SDS011;11286;45.596;5.284;2023-03-29T00:37:33;4.63;;;1.60;;
22234;SDS011;11286;45.596;5.284;2023-03-29T00:39:59;2.72;;;1.50;;
22234;SDS011;11286;45.596;5.284;2023-03-29T00:42:25;3.60;;;1.52;;
22234;SDS011;11286;45.596;5.284;2023-03-29T00:45:01;3.40;;;1.60;;
22234;SDS011;11286;45.596;5.284;2023-03-29T00:50:07;2.58;;;1.50;;
22234;SDS011;11286;45.596;5.284;2023-03-29T00:52:36;2.88;;;1.52;;
22234;SDS011;11286;45.596;5.284;2023-03-29T00:55:06;3.70;;;2.00;;
22234;SDS011;11286;45.596;5.284;2023-03-29T00:57:38;5.32;;;1.50;;
22234;SDS011;11286;45.596;5.284;2023-03-29T01:00:07;2.50;;;1.60;;
22234;SDS011;11286;45.596;5.284;2023-03-29T01:02:34;5.13;;;1.80;;
22234;SDS011;11286;45.596;5.284;2023-03-29T01:10:17;3.38;;;1.80;;
22234;SDS011;11286;45.596;5.284;2023-03-29T01:13:11;2.85;;;1.58;;
22234;SDS011;11286;45.596;5.284;2023-03-29T01:15:44;6.10;;;2.17;;
22234;SDS011;11286;45.596;5.284;2023-03-29T01:18:11;4.53;;;1.60;;
22234;SDS011;11286;45.596;5.284;2023-03-29T01:26:11;3.15;;;1.50;;
22234;SDS011;11286;45.596;5.284;2023-03-29T01:28:44;3.30;;;1.67;;
22234;SDS011;11286;45.596;5.284;2023-03-29T01:31:17;4.35;;;1.60;;
22234;SDS011;11286;45.596;5.284;2023-03-29T01:33:50;3.78;;;1.90;;
22234;SDS011;11286;45.596;5.284;2023-03-29T01:36:38;5.13;;;1.83;;
22234;SDS011;11286;45.596;5.284;2023-03-29T01:39:13;2.88;;;1.52;;
22234;SDS011;11286;45.596;5.284;2023-03-29T01:41:45;5.72;;;1.90;;
22234;SDS011;11286;45.596;5.284;2023-03-29T01:44:39;4.13;;;1.50;;
22234;SDS011;11286;45.596;5.284;2023-03-29T01:50:11;2.53;;;1.30;;
22234;SDS011;11286;45.596;5.284;2023-03-29T01:52:53;6.57;;;2.03;;
22234;SDS011;11286;45.596;5.284;2023-03-29T01:55:24;4.85;;;1.95;;
22234;SDS011;11286;45.596;5.284;2023-03-29T01:57:59;3.17;;;1.60;;
22234;SDS011;11286;45.596;5.284;2023-03-29T02:00:29;5.70;;;1.83;;
22234;SDS011;11286;45.596;5.284;2023-03-29T02:02:59;2.80;;;1.70;;
22234;SDS011;11286;45.596;5.284;2023-03-29T02:05:30;4.70;;;1.50;;
22234;SDS011;11286;45.596;5.284;2023-03-29T02:07:58;3.58;;;1.67;;
22234;SDS011;11286;45.596;5.284;2023-03-29T02:10:25;5.60;;;1.77;;
22234;SDS011;11286;45.596;5.284;2023-03-29T02:12:51;4.80;;;1.80;;
22234;SDS011;11286;45.596;5.284;2023-03-29T02:15:18;7.70;;;2.05;;
22234;SDS011;11286;45.596;5.284;2023-03-29T02:17:44;5.53;;;1.92;;
22234;SDS011;11286;45.596;5.284;2023-03-29T02:20:22;4.32;;;1.80;;
22234;SDS011;11286;45.596;5.284;2023-03-29T02:23:01;6.97;;;1.85;;
22234;SDS011;11286;45.596;5.284;2023-03-29T02:25:32;3.25;;;1.83;;
22234;SDS011;11286;45.596;5.284;2023-03-29T02:27:59;6.05;;;1.77;;
22234;SDS011;11286;45.596;5.284;2023-03-29T02:30:30;2.55;;;1.60;;
22234;SDS011;11286;45.596;5.284;2023-03-29T02:33:09;5.18;;;1.83;;
22234;SDS011;11286;45.596;5.284;2023-03-29T02:35:44;4.35;;;1.50;;
22234;SDS011;11286;45.596;5.284;2023-03-29T02:38:17;3.70;;;1.50;;
22234;SDS011;11286;45.596;5.284;2023-03-29T02:40:44;4.03;;;1.65;;
22234;SDS011;11286;45.596;5.284;2023-03-29T02:43:10;2.60;;;1.63;;
22234;SDS011;11286;45.596;5.284;2023-03-29T02:45:38;3.70;;;1.77;;
22234;SDS011;11286;45.596;5.284;2023-03-29T02:48:06;3.90;;;1.65;;
22234;SDS011;11286;45.596;5.284;2023-03-29T02:50:35;2.65;;;1.77;;
22234;SDS011;11286;45.596;5.284;2023-03-29T02:53:04;2.50;;;1.73;;
22234;SDS011;11286;45.596;5.284;2023-03-29T02:55:35;1.92;;;1.70;;
22234;SDS011;11286;45.596;5.284;2023-03-29T02:58:03;2.42;;;1.77;;
22234;SDS011;11286;45.596;5.284;2023-03-29T03:00:35;3.50;;;1.83;;
22234;SDS011;11286;45.596;5.284;2023-03-29T03:03:04;4.05;;;1.50;;
22234;SDS011;11286;45.596;5.284;2023-03-29T03:05:31;4.50;;;1.60;;
22234;SDS011;11286;45.596;5.284;2023-03-29T03:07:57;3.72;;;1.85;;
22234;SDS011;11286;45.596;5.284;2023-03-29T03:10:23;2.83;;;1.80;;
22234;SDS011;11286;45.596;5.284;2023-03-29T03:12:49;4.03;;;1.80;;
22234;SDS011;11286;45.596;5.284;2023-03-29T03:15:15;6.28;;;1.85;;
22234;SDS011;11286;45.596;5.284;2023-03-29T03:17:40;3.40;;;1.92;;
22234;SDS011;11286;45.596;5.284;2023-03-29T03:20:07;3.63;;;1.52;;
22234;SDS011;11286;45.596;5.284;2023-03-29T03:22:46;4.53;;;1.90;;
22234;SDS011;11286;45.596;5.284;2023-03-29T03:25:16;3.75;;;1.40;;
22234;SDS011;11286;45.596;5.284;2023-03-29T03:27:44;3.50;;;1.77;;
22234;SDS011;11286;45.596;5.284;2023-03-29T03:30:11;3.45;;;1.60;;
22234;SDS011;11286;45.596;5.284;2023-03-29T03:32:37;3.95;;;1.77;;
22234;SDS011;11286;45.596;5.284;2023-03-29T03:35:03;3.00;;;1.58;;
22234;SDS011;11286;45.596;5.284;2023-03-29T03:37:29;3.90;;;1.70;;
22234;SDS011;11286;45.596;5.284;2023-03-29T03:39:55;2.63;;;1.67;;
22234;SDS011;11286;45.596;5.284;2023-03-29T03:42:21;3.70;;;1.77;;
22234;SDS011;11286;45.596;5.284;2023-03-29T03:44:47;4.50;;;1.63;;
22234;SDS011;11286;45.596;5.284;2023-03-29T03:47:13;3.25;;;1.60;;
22234;SDS011;11286;45.596;5.284;2023-03-29T03:49:39;4.70;;;1.58;;
22234;SDS011;11286;45.596;5.284;2023-03-29T03:52:05;5.78;;;1.52;;
22234;SDS011;11286;45.596;5.284;2023-03-29T03:54:32;3.10;;;1.40;;
22234;SDS011;11286;45.596;5.284;2023-03-29T03:56:58;5.43;;;1.88;;
22234;SDS011;11286;45.596;5.284;2023-03-29T03:59:23;3.75;;;1.88;;
22234;SDS011;11286;45.596;5.284;2023-03-29T04:01:49;2.80;;;1.73;;
22234;SDS011;11286;45.596;5.284;2023-03-29T04:04:15;5.18;;;1.65;;
22234;SDS011;11286;45.596;5.284;2023-03-29T04:06:41;4.55;;;1.50;;
22234;SDS011;11286;45.596;5.284;2023-03-29T04:09:08;3.53;;;1.73;;
22234;SDS011;11286;45.596;5.284;2023-03-29T04:11:34;3.40;;;1.67;;
22234;SDS011;11286;45.596;5.284;2023-03-29T04:14:00;3.10;;;1.60;;
22234;SDS011;11286;45.596;5.284;2023-03-29T04:16:26;6.22;;;1.95;;
22234;SDS011;11286;45.596;5.284;2023-03-29T04:18:52;4.60;;;1.75;;
22234;SDS011;11286;45.596;5.284;2023-03-29T04:21:18;4.03;;;1.33;;
22234;SDS011;11286;45.596;5.284;2023-03-29T04:23:44;4.90;;;1.60;;
22234;SDS011;11286;45.596;5.284;2023-03-29T04:26:11;4.55;;;1.80;;
22234;SDS011;11286;45.596;5.284;2023-03-29T04:28:38;4.20;;;1.58;;
22234;SDS011;11286;45.596;5.284;2023-03-29T04:31:06;3.67;;;1.40;;
22234;SDS011;11286;45.596;5.284;2023-03-29T04:33:37;5.18;;;1.75;;
22234;SDS011;11286;45.596;5.284;2023-03-29T04:36:03;5.68;;;1.67;;
22234;SDS011;11286;45.596;5.284;2023-03-29T04:38:30;3.15;;;1.67;;
22234;SDS011;11286;45.596;5.284;2023-03-29T04:40:55;4.38;;;1.55;;
22234;SDS011;11286;45.596;5.284;2023-03-29T04:43:22;4.53;;;1.58;;
22234;SDS011;11286;45.596;5.284;2023-03-29T04:45:47;4.15;;;1.63;;
22234;SDS011;11286;45.596;5.284;2023-03-29T04:48:14;3.50;;;1.75;;
22234;SDS011;11286;45.596;5.284;2023-03-29T04:50:40;3.97;;;1.75;;
22234;SDS011;11286;45.596;5.284;2023-03-29T04:53:09;3.75;;;1.40;;
22234;SDS011;11286;45.596;5.284;2023-03-29T04:55:35;3.08;;;1.50;;
22234;SDS011;11286;45.596;5.284;2023-03-29T04:58:01;3.58;;;1.55;;
22234;SDS011;11286;45.596;5.284;2023-03-29T05:00:26;2.67;;;1.52;;
22234;SDS011;11286;45.596;5.284;2023-03-29T05:02:52;4.50;;;1.60;;
22234;SDS011;11286;45.596;5.284;2023-03-29T05:05:18;5.10;;;1.80;;
22234;SDS011;11286;45.596;5.284;2023-03-29T05:07:45;4.63;;;1.80;;
22234;SDS011;11286;45.596;5.284;2023-03-29T05:10:10;5.05;;;1.63;;
22234;SDS011;11286;45.596;5.284;2023-03-29T05:12:36;4.43;;;1.90;;
22234;SDS011;11286;45.596;5.284;2023-03-29T05:15:05;4.78;;;1.50;;
22234;SDS011;11286;45.596;5.284;2023-03-29T05:17:32;3.15;;;1.45;;
22234;SDS011;11286;45.596;5.284;2023-03-29T05:19:58;5.20;;;1.50;;
22234;SDS011;11286;45.596;5.284;2023-03-29T05:22:24;4.80;;;1.60;;
22234;SDS011;11286;45.596;5.284;2023-03-29T05:24:51;4.45;;;1.65;;
22234;SDS011;11286;45.596;5.284;2023-03-29T05:27:17;5.30;;;1.98;;
22234;SDS011;11286;45.596;5.284;2023-03-29T05:29:45;3.47;;;1.80;;
22234;SDS011;11286;45.596;5.284;2023-03-29T05:32:11;2.60;;;1.63;;
22234;SDS011;11286;45.596;5.284;2023-03-29T05:34:37;4.22;;;1.63;;
22234;SDS011;11286;45.596;5.284;2023-03-29T05:37:03;3.70;;;1.88;;
22234;SDS011;11286;45.596;5.284;2023-03-29T05:39:29;5.45;;;1.55;;
22234;SDS011;11286;45.596;5.284;2023-03-29T05:41:57;2.95;;;1.40;;
22234;SDS011;11286;45.596;5.284;2023-03-29T05:44:24;4.28;;;1.80;;
22234;SDS011;11286;45.596;5.284;2023-03-29T05:46:49;6.45;;;1.73;;
22234;SDS011;11286;45.596;5.284;2023-03-29T05:49:15;3.00;;;1.60;;
22234;SDS011;11286;45.596;5.284;2023-03-29T05:51:41;2.55;;;1.58;;
22234;SDS011;11286;45.596;5.284;2023-03-29T05:54:09;5.55;;;1.85;;
22234;SDS011;11286;45.596;5.284;2023-03-29T05:56:36;6.18;;;1.92;;
22234;SDS011;11286;45.596;5.284;2023-03-29T05:59:02;7.53;;;1.50;;
22234;SDS011;11286;45.596;5.284;2023-03-29T06:01:28;4.85;;;2.05;;
22234;SDS011;11286;45.596;5.284;2023-03-29T06:03:55;5.35;;;1.80;;
22234;SDS011;11286;45.596;5.284;2023-03-29T06:06:21;5.72;;;1.77;;
22234;SDS011;11286;45.596;5.284;2023-03-29T06:08:47;5.45;;;1.98;;
22234;SDS011;11286;45.596;5.284;2023-03-29T06:11:13;4.95;;;2.00;;
22234;SDS011;11286;45.596;5.284;2023-03-29T06:13:39;3.30;;;1.42;;
22234;SDS011;11286;45.596;5.284;2023-03-29T06:16:05;6.93;;;1.70;;
22234;SDS011;11286;45.596;5.284;2023-03-29T06:18:32;6.68;;;1.88;;
22234;SDS011;11286;45.596;5.284;2023-03-29T06:20:58;5.85;;;2.05;;
22234;SDS011;11286;45.596;5.284;2023-03-29T06:23:26;5.90;;;1.80;;
22234;SDS011;11286;45.596;5.284;2023-03-29T06:25:53;5.68;;;1.80;;
22234;SDS011;11286;45.596;5.284;2023-03-29T06:28:19;5.68;;;1.95;;
22234;SDS011;11286;45.596;5.284;2023-03-29T06:30:46;5.25;;;1.88;;
22234;SDS011;11286;45.596;5.284;2023-03-29T06:33:13;7.28;;;2.20;;
22234;SDS011;11286;45.596;5.284;2023-03-29T06:35:42;5.35;;;2.45;;
22234;SDS011;11286;45.596;5.284;2023-03-29T06:38:10;4.35;;;1.80;;
22234;SDS011;11286;45.596;5.284;2023-03-29T06:40:35;5.47;;;2.00;;
22234;SDS011;11286;45.596;5.284;2023-03-29T06:43:02;5.47;;;1.70;;
22234;SDS011;11286;45.596;5.284;2023-03-29T06:45:33;7.97;;;2.90;;
22234;SDS011;11286;45.596;5.284;2023-03-29T06:48:03;6.00;;;1.77;;
22234;SDS011;11286;45.596;5.284;2023-03-29T06:50:30;4.70;;;1.52;;
22234;SDS011;11286;45.596;5.284;2023-03-29T06:52:56;7.95;;;1.95;;
22234;SDS011;11286;45.596;5.284;2023-03-29T06:55:22;4.80;;;2.13;;
22234;SDS011;11286;45.596;5.284;2023-03-29T06:57:48;6.53;;;2.10;;
22234;SDS011;11286;45.596;5.284;2023-03-29T07:00:14;2.83;;;1.70;;
22234;SDS011;11286;45.596;5.284;2023-03-29T07:02:43;3.22;;;1.65;;
22234;SDS011;11286;45.596;5.284;2023-03-29T07:05:09;6.50;;;2.10;;
22234;SDS011;11286;45.596;5.284;2023-03-29T07:07:39;4.90;;;2.17;;
22234;SDS011;11286;45.596;5.284;2023-03-29T07:10:30;3.70;;;1.50;;
22234;SDS011;11286;45.596;5.284;2023-03-29T07:12:59;2.28;;;1.60;;
22234;SDS011;11286;45.596;5.284;2023-03-29T07:15:25;4.43;;;1.80;;
22234;SDS011;11286;45.596;5.284;2023-03-29T07:17:52;2.60;;;1.50;;
22234;SDS011;11286;45.596;5.284;2023-03-29T07:20:18;4.40;;;1.77;;
22234;SDS011;11286;45.596;5.284;2023-03-29T07:22:46;4.10;;;1.70;;
22234;SDS011;11286;45.596;5.284;2023-03-29T07:25:12;5.05;;;1.70;;
22234;SDS011;11286;45.596;5.284;2023-03-29T07:27:40;2.55;;;1.70;;
22234;SDS011;11286;45.596;5.284;2023-03-29T07:30:07;6.13;;;1.90;;
22234;SDS011;11286;45.596;5.284;2023-03-29T07:32:39;4.13;;;1.60;;
22234;SDS011;11286;45.596;5.284;2023-03-29T07:35:06;5.95;;;1.90;;
22234;SDS011;11286;45.596;5.284;2023-03-29T07:37:33;3.75;;;1.60;;
22234;SDS011;11286;45.596;5.284;2023-03-29T07:40:01;3.33;;;1.55;;
22234;SDS011;11286;45.596;5.284;2023-03-29T07:42:50;8.02;;;1.83;;
22234;SDS011;11286;45.596;5.284;2023-03-29T07:45:18;3.33;;;1.55;;
22234;SDS011;11286;45.596;5.284;2023-03-29T07:47:47;6.10;;;1.52;;
22234;SDS011;11286;45.596;5.284;2023-03-29T07:50:14;3.88;;;1.70;;
22234;SDS011;11286;45.596;5.284;2023-03-29T07:52:40;4.10;;;1.60;;
22234;SDS011;11286;45.596;5.284;2023-03-29T07:55:08;4.93;;;1.83;;
22234;SDS011;11286;45.596;5.284;2023-03-29T07:57:35;4.35;;;1.92;;
22234;SDS011;11286;45.596;5.284;2023-03-29T08:00:02;4.38;;;2.03;;
22234;SDS011;11286;45.596;5.284;2023-03-29T08:02:43;5.60;;;2.13;;
22234;SDS011;11286;45.596;5.284;2023-03-29T08:05:10;4.60;;;1.70;;
22234;SDS011;11286;45.596;5.284;2023-03-29T08:07:37;5.75;;;1.77;;
22234;SDS011;11286;45.596;5.284;2023-03-29T08:10:04;5.05;;;1.52;;
22234;SDS011;11286;45.596;5.284;2023-03-29T08:12:32;3.20;;;1.58;;
22234;SDS011;11286;45.596;5.284;2023-03-29T08:14:58;2.70;;;1.40;;
22234;SDS011;11286;45.596;5.284;2023-03-29T08:17:24;3.28;;;1.60;;
22234;SDS011;11286;45.596;5.284;2023-03-29T08:19:50;4.35;;;1.50;;
22234;SDS011;11286;45.596;5.284;2023-03-29T08:22:16;5.15;;;1.70;;
22234;SDS011;11286;45.596;5.284;2023-03-29T08:24:42;4.38;;;1.60;;
22234;SDS011;11286;45.596;5.284;2023-03-29T08:27:07;2.75;;;1.70;;
22234;SDS011;11286;45.596;5.284;2023-03-29T08:29:33;5.28;;;1.48;;
22234;SDS011;11286;45.596;5.284;2023-03-29T08:31:58;4.65;;;1.77;;
22234;SDS011;11286;45.596;5.284;2023-03-29T08:34:24;5.63;;;1.65;;
22234;SDS011;11286;45.596;5.284;2023-03-29T08:36:50;4.32;;;1.90;;
22234;SDS011;11286;45.596;5.284;2023-03-29T08:39:17;2.42;;;1.25;;
22234;SDS011;11286;45.596;5.284;2023-03-29T08:44:10;3.53;;;1.33;;
22234;SDS011;11286;45.596;5.284;2023-03-29T08:46:49;5.32;;;1.80;;
22234;SDS011;11286;45.596;5.284;2023-03-29T08:49:28;4.03;;;1.80;;
22234;SDS011;11286;45.596;5.284;2023-03-29T08:51:56;3.20;;;1.67;;
22234;SDS011;11286;45.596;5.284;2023-03-29T08:54:25;5.47;;;1.77;;
22234;SDS011;11286;45.596;5.284;2023-03-29T08:57:00;2.85;;;1.38;;
22234;SDS011;11286;45.596;5.284;2023-03-29T08:59:57;4.32;;;1.70;;
22234;SDS011;11286;45.596;5.284;2023-03-29T09:02:26;4.68;;;2.17;;
22234;SDS011;11286;45.596;5.284;2023-03-29T09:04:56;4.40;;;1.65;;
22234;SDS011;11286;45.596;5.284;2023-03-29T09:07:26;2.83;;;1.60;;
22234;SDS011;11286;45.596;5.284;2023-03-29T09:09:52;2.38;;;1.45;;
22234;SDS011;11286;45.596;5.284;2023-03-29T09:19:50;4.55;;;2.20;;
22234;SDS011;11286;45.596;5.284;2023-03-29T09:22:40;5.85;;;2.40;;
22234;SDS011;11286;45.596;5.284;2023-03-29T09:25:26;5.15;;;2.30;;
22234;SDS011;11286;45.596;5.284;2023-03-29T09:38:23;4.05;;;1.92;;
22234;SDS011;11286;45.596;5.284;2023-03-29T09:40:50;5.38;;;2.72;;
22234;SDS011;11286;45.596;5.284;2023-03-29T09:43:30;3.72;;;1.80;;
22234;SDS011;11286;45.596;5.284;2023-03-29T09:46:01;3.88;;;1.85;;
22234;SDS011;11286;45.596;5.284;2023-03-29T09:48:30;3.35;;;2.05;;
22234;SDS011;11286;45.596;5.284;2023-03-29T09:51:02;4.45;;;2.20;;
22234;SDS011;11286;45.596;5.284;2023-03-29T09:53:31;4.40;;;1.92;;
22234;SDS011;11286;45.596;5.284;2023-03-29T09:55:56;7.32;;;3.38;;
22234;SDS011;11286;45.596;5.284;2023-03-29T09:58:25;3.92;;;2.78;;
22234;SDS011;11286;45.596;5.284;2023-03-29T10:00:52;4.88;;;1.90;;
22234;SDS011;11286;45.596;5.284;2023-03-29T10:03:25;3.53;;;1.70;;
22234;SDS011;11286;45.596;5.284;2023-03-29T10:05:54;2.67;;;1.70;;
22234;SDS011;11286;45.596;5.284;2023-03-29T10:08:24;5.65;;;1.70;;
22234;SDS011;11286;45.596;5.284;2023-03-29T10:10:52;4.28;;;1.92;;
22234;SDS011;11286;45.596;5.284;2023-03-29T10:13:28;3.92;;;1.98;;
22234;SDS011;11286;45.596;5.284;2023-03-29T10:18:29;3.45;;;1.83;;
22234;SDS011;11286;45.596;5.284;2023-03-29T10:20:59;3.90;;;2.10;;
22234;SDS011;11286;45.596;5.284;2023-03-29T10:23:31;2.97;;;1.70;;
22234;SDS011;11286;45.596;5.284;2023-03-29T10:25:58;3.88;;;1.83;;
22234;SDS011;11286;45.596;5.284;2023-03-29T10:28:25;3.35;;;1.90;;
22234;SDS011;11286;45.596;5.284;2023-03-29T10:30:52;3.05;;;1.77;;
22234;SDS011;11286;45.596;5.284;2023-03-29T10:33:21;3.63;;;1.90;;
22234;SDS011;11286;45.596;5.284;2023-03-29T10:35:51;3.85;;;1.88;;
22234;SDS011;11286;45.596;5.284;2023-03-29T10:38:19;5.32;;;1.50;;
22234;SDS011;11286;45.596;5.284;2023-03-29T10:40:49;4.78;;;2.13;;
22234;SDS011;11286;45.596;5.284;2023-03-29T10:45:54;4.10;;;1.80;;
22234;SDS011;11286;45.596;5.284;2023-03-29T10:48:29;7.15;;;1.90;;
22234;SDS011;11286;45.596;5.284;2023-03-29T10:50:59;5.00;;;1.70;;
22234;SDS011;11286;45.596;5.284;2023-03-29T10:53:30;2.75;;;1.70;;
22234;SDS011;11286;45.596;5.284;2023-03-29T11:01:07;4.10;;;2.00;;
22234;SDS011;11286;45.596;5.284;2023-03-29T11:06:18;3.25;;;1.70;;
22234;SDS011;11286;45.596;5.284;2023-03-29T11:09:19;5.15;;;1.90;;
22234;SDS011;11286;45.596;5.284;2023-03-29T11:22:55;2.63;;;1.73;;
22234;SDS011;11286;45.596;5.284;2023-03-29T11:25:39;2.72;;;1.77;;
22234;SDS011;11286;45.596;5.284;2023-03-29T11:28:33;3.30;;;1.90;;
22234;SDS011;11286;45.596;5.284;2023-03-29T11:39:13;6.15;;;1.98;;
22234;SDS011;11286;45.596;5.284;2023-03-29T11:41:55;4.60;;;1.70;;
22234;SDS011;11286;45.596;5.284;2023-03-29T11:44:31;4.32;;;1.90;;
22234;SDS011;11286;45.596;5.284;2023-03-29T11:47:13;4.05;;;1.60;;
22234;SDS011;11286;45.596;5.284;2023-03-29T11:52:21;5.63;;;2.05;;
22234;SDS011;11286;45.596;5.284;2023-03-29T11:54:53;2.95;;;1.80;;
22234;SDS011;11286;45.596;5.284;2023-03-29T11:57:25;3.15;;;1.90;;
22234;SDS011;11286;45.596;5.284;2023-03-29T12:02:32;6.32;;;2.10;;
22234;SDS011;11286;45.596;5.284;2023-03-29T12:05:02;3.75;;;1.80;;
22234;SDS011;11286;45.596;5.284;2023-03-29T12:07:35;3.72;;;1.70;;
22234;SDS011;11286;45.596;5.284;2023-03-29T12:12:41;4.60;;;1.92;;
22234;SDS011;11286;45.596;5.284;2023-03-29T12:15:27;4.22;;;1.70;;
22234;SDS011;11286;45.596;5.284;2023-03-29T12:20:34;3.55;;;1.80;;
22234;SDS011;11286;45.596;5.284;2023-03-29T12:23:04;6.40;;;2.50;;
22234;SDS011;11286;45.596;5.284;2023-03-29T12:25:33;5.68;;;1.90;;
22234;SDS011;11286;45.596;5.284;2023-03-29T12:31:04;6.45;;;2.00;;
22234;SDS011;11286;45.596;5.284;2023-03-29T12:34:03;4.57;;;1.95;;
22234;SDS011;11286;45.596;5.284;2023-03-29T12:39:17;4.05;;;1.90;;
22234;SDS011;11286;45.596;5.284;2023-03-29T12:41:44;5.93;;;1.80;;
22234;SDS011;11286;45.596;5.284;2023-03-29T12:44:15;2.10;;;1.58;;
22234;SDS011;11286;45.596;5.284;2023-03-29T12:46:44;4.53;;;1.77;;
22234;SDS011;11286;45.596;5.284;2023-03-29T12:49:13;4.28;;;1.88;;
22234;SDS011;11286;45.596;5.284;2023-03-29T12:51:48;5.95;;;2.10;;
22234;SDS011;11286;45.596;5.284;2023-03-29T12:54:18;3.25;;;1.90;;
22234;SDS011;11286;45.596;5.284;2023-03-29T13:09:57;4.43;;;1.88;;
22234;SDS011;11286;45.596;5.284;2023-03-29T13:15:03;4.43;;;1.88;;
22234;SDS011;11286;45.596;5.284;2023-03-29T13:20:45;4.85;;;1.92;;
22234;SDS011;11286;45.596;5.284;2023-03-29T13:26:12;4.22;;;1.90;;
22234;SDS011;11286;45.596;5.284;2023-03-29T13:32:49;8.05;;;2.38;;
22234;SDS011;11286;45.596;5.284;2023-03-29T13:39:56;6.35;;;3.00;;
22234;SDS011;11286;45.596;5.284;2023-03-29T13:48:03;6.72;;;2.47;;
22234;SDS011;11286;45.596;5.284;2023-03-29T13:50:51;4.07;;;2.30;;
22234;SDS011;11286;45.596;5.284;2023-03-29T13:55:55;6.80;;;2.03;;
22234;SDS011;11286;45.596;5.284;2023-03-29T14:04:22;5.80;;;2.05;;
22234;SDS011;11286;45.596;5.284;2023-03-29T14:06:51;5.93;;;2.40;;
22234;SDS011;11286;45.596;5.284;2023-03-29T14:09:20;6.32;;;2.47;;
22234;SDS011;11286;45.596;5.284;2023-03-29T14:11:52;5.20;;;2.22;;
22234;SDS011;11286;45.596;5.284;2023-03-29T14:14:20;5.18;;;2.10;;
22234;SDS011;11286;45.596;5.284;2023-03-29T14:16:49;5.72;;;1.90;;
22234;SDS011;11286;45.596;5.284;2023-03-29T14:19:20;4.80;;;2.25;;
22234;SDS011;11286;45.596;5.284;2023-03-29T14:21:53;3.97;;;2.10;;
22234;SDS011;11286;45.596;5.284;2023-03-29T14:24:22;8.43;;;1.95;;
22234;SDS011;11286;45.596;5.284;2023-03-29T14:26:51;5.40;;;2.08;;
22234;SDS011;11286;45.596;5.284;2023-03-29T14:29:18;4.25;;;2.03;;
22234;SDS011;11286;45.596;5.284;2023-03-29T14:31:44;7.93;;;2.50;;
22234;SDS011;11286;45.596;5.284;2023-03-29T14:34:19;5.82;;;2.10;;
22234;SDS011;11286;45.596;5.284;2023-03-29T14:36:46;4.95;;;2.20;;
22234;SDS011;11286;45.596;5.284;2023-03-29T14:39:15;5.80;;;2.10;;
22234;SDS011;11286;45.596;5.284;2023-03-29T14:41:50;7.50;;;2.30;;
22234;SDS011;11286;45.596;5.284;2023-03-29T14:44:21;4.88;;;2.38;;
22234;SDS011;11286;45.596;5.284;2023-03-29T14:46:49;3.60;;;2.22;;
22234;SDS011;11286;45.596;5.284;2023-03-29T14:49:16;7.00;;;2.33;;
22234;SDS011;11286;45.596;5.284;2023-03-29T14:51:43;6.03;;;2.40;;
22234;SDS011;11286;45.596;5.284;2023-03-29T14:57:11;7.20;;;2.40;;
22234;SDS011;11286;45.596;5.284;2023-03-29T14:59:42;3.78;;;2.50;;
22234;SDS011;11286;45.596;5.284;2023-03-29T15:02:32;6.68;;;2.67;;
22234;SDS011;11286;45.596;5.284;2023-03-29T15:05:02;5.35;;;2.70;;
22234;SDS011;11286;45.596;5.284;2023-03-29T15:07:29;6.18;;;2.53;;
22234;SDS011;11286;45.596;5.284;2023-03-29T15:09:57;5.63;;;2.72;;
22234;SDS011;11286;45.596;5.284;2023-03-29T15:12:24;4.80;;;2.30;;
22234;SDS011;11286;45.596;5.284;2023-03-29T15:14:53;4.63;;;2.20;;
22234;SDS011;11286;45.596;5.284;2023-03-29T15:17:30;7.65;;;2.90;;
22234;SDS011;11286;45.596;5.284;2023-03-29T15:19:59;6.30;;;3.03;;
22234;SDS011;11286;45.596;5.284;2023-03-29T15:22:38;5.50;;;2.58;;
22234;SDS011;11286;45.596;5.284;2023-03-29T15:25:16;7.53;;;2.67;;
22234;SDS011;11286;45.596;5.284;2023-03-29T15:27:43;5.75;;;2.50;;
22234;SDS011;11286;45.596;5.284;2023-03-29T15:30:12;5.88;;;2.45;;
22234;SDS011;11286;45.596;5.284;2023-03-29T15:32:39;4.88;;;2.40;;
22234;SDS011;11286;45.596;5.284;2023-03-29T15:35:06;6.53;;;2.58;;
22234;SDS011;11286;45.596;5.284;2023-03-29T15:37:44;5.55;;;2.70;;
22234;SDS011;11286;45.596;5.284;2023-03-29T15:40:24;4.57;;;2.35;;
22234;SDS011;11286;45.596;5.284;2023-03-29T15:42:51;4.43;;;2.83;;
22234;SDS011;11286;45.596;5.284;2023-03-29T15:45:18;6.45;;;2.40;;
22234;SDS011;11286;45.596;5.284;2023-03-29T15:47:46;5.53;;;3.00;;
22234;SDS011;11286;45.596;5.284;2023-03-29T15:50:12;4.57;;;2.55;;
22234;SDS011;11286;45.596;5.284;2023-03-29T15:52:39;3.45;;;2.55;;
22234;SDS011;11286;45.596;5.284;2023-03-29T15:55:05;4.93;;;2.88;;
22234;SDS011;11286;45.596;5.284;2023-03-29T15:57:31;6.43;;;2.60;;
22234;SDS011;11286;45.596;5.284;2023-03-29T15:59:57;6.43;;;2.92;;
22234;SDS011;11286;45.596;5.284;2023-03-29T16:02:24;6.22;;;2.55;;
22234;SDS011;11286;45.596;5.284;2023-03-29T16:04:50;6.10;;;2.63;;
22234;SDS011;11286;45.596;5.284;2023-03-29T16:07:16;8.88;;;2.80;;
22234;SDS011;11286;45.596;5.284;2023-03-29T16:09:43;4.60;;;2.20;;
22234;SDS011;11286;45.596;5.284;2023-03-29T16:12:10;7.53;;;2.63;;
22234;SDS011;11286;45.596;5.284;2023-03-29T16:14:36;7.53;;;2.40;;
22234;SDS011;11286;45.596;5.284;2023-03-29T16:17:02;8.30;;;2.47;;
22234;SDS011;11286;45.596;5.284;2023-03-29T16:19:29;6.70;;;2.50;;
22234;SDS011;11286;45.596;5.284;2023-03-29T16:21:56;4.15;;;2.40;;
22234;SDS011;11286;45.596;5.284;2023-03-29T16:24:23;4.65;;;2.67;;
22234;SDS011;11286;45.596;5.284;2023-03-29T16:26:51;6.05;;;2.65;;
22234;SDS011;11286;45.596;5.284;2023-03-29T16:29:17;7.03;;;2.92;;
22234;SDS011;11286;45.596;5.284;2023-03-29T16:31:44;6.05;;;2.70;;
22234;SDS011;11286;45.596;5.284;2023-03-29T16:34:11;6.50;;;2.75;;
22234;SDS011;11286;45.596;5.284;2023-03-29T16:36:38;3.78;;;2.50;;
22234;SDS011;11286;45.596;5.284;2023-03-29T16:39:04;6.40;;;2.30;;
22234;SDS011;11286;45.596;5.284;2023-03-29T16:41:30;7.35;;;2.38;;
22234;SDS011;11286;45.596;5.284;2023-03-29T16:43:57;5.88;;;2.28;;
22234;SDS011;11286;45.596;5.284;2023-03-29T16:46:23;7.78;;;2.50;;
22234;SDS011;11286;45.596;5.284;2023-03-29T16:48:49;8.05;;;2.40;;
22234;SDS011;11286;45.596;5.284;2023-03-29T16:51:15;3.92;;;2.28;;
22234;SDS011;11286;45.596;5.284;2023-03-29T16:53:41;8.27;;;2.47;;
22234;SDS011;11286;45.596;5.284;2023-03-29T16:56:07;5.55;;;2.50;;
22234;SDS011;11286;45.596;5.284;2023-03-29T16:58:34;10.82;;;2.92;;
22234;SDS011;11286;45.596;5.284;2023-03-29T17:01:06;8.88;;;2.60;;
22234;SDS011;11286;45.596;5.284;2023-03-29T17:03:34;9.15;;;4.22;;
22234;SDS011;11286;45.596;5.284;2023-03-29T17:06:01;9.70;;;3.20;;
22234;SDS011;11286;45.596;5.284;2023-03-29T17:08:27;8.05;;;2.90;;
22234;SDS011;11286;45.596;5.284;2023-03-29T17:10:53;5.65;;;2.60;;
22234;SDS011;11286;45.596;5.284;2023-03-29T17:13:19;9.00;;;2.88;;